sensor_id;sensor_type;location;lat;lon;timestamp;temperature;humidity
46758;DHT22;32509;47.750;-3.396;2022-12-07T00:01:07;7.80;99.90
46758;DHT22;32509;47.750;-3.396;2022-12-07T00:03:34;7.80;99.90
46758;DHT22;32509;47.750;-3.396;2022-12-07T00:06:01;7.70;99.90
46758;DHT22;32509;47.750;-3.396;2022-12-07T00:08:27;7.80;99.90
46758;DHT22;32509;47.750;-3.396;2022-12-07T00:10:53;7.70;99.90
46758;DHT22;32509;47.750;-3.396;2022-12-07T00:13:19;7.80;99.90
46758;DHT22;32509;47.750;-3.396;2022-12-07T00:15:45;7.80;99.90
46758;DHT22;32509;47.750;-3.396;2022-12-07T00:18:10;7.80;99.90
46758;DHT22;32509;47.750;-3.396;2022-12-07T00:20:36;7.80;99.90
46758;DHT22;32509;47.750;-3.396;2022-12-07T00:23:02;7.80;99.90
46758;DHT22;32509;47.750;-3.396;2022-12-07T00:25:28;7.80;99.90
46758;DHT22;32509;47.750;-3.396;2022-12-07T00:27:55;7.80;99.90
46758;DHT22;32509;47.750;-3.396;2022-12-07T00:30:24;7.80;99.90
46758;DHT22;32509;47.750;-3.396;2022-12-07T00:32:50;7.80;99.90
46758;DHT22;32509;47.750;-3.396;2022-12-07T00:35:16;7.80;99.90
46758;DHT22;32509;47.750;-3.396;2022-12-07T00:37:41;7.80;99.90
46758;DHT22;32509;47.750;-3.396;2022-12-07T00:40:07;7.80;99.90
46758;DHT22;32509;47.750;-3.396;2022-12-07T00:42:33;7.80;99.90
46758;DHT22;32509;47.750;-3.396;2022-12-07T00:44:59;7.80;99.90
46758;DHT22;32509;47.750;-3.396;2022-12-07T00:47:25;7.80;99.90
46758;DHT22;32509;47.750;-3.396;2022-12-07T00:49:51;7.80;99.90
46758;DHT22;32509;47.750;-3.396;2022-12-07T00:52:16;7.80;99.90
46758;DHT22;32509;47.750;-3.396;2022-12-07T00:54:42;7.80;99.90
46758;DHT22;32509;47.750;-3.396;2022-12-07T00:57:08;7.80;99.90
46758;DHT22;32509;47.750;-3.396;2022-12-07T00:59:34;7.80;99.90
46758;DHT22;32509;47.750;-3.396;2022-12-07T01:01:59;7.80;99.90
46758;DHT22;32509;47.750;-3.396;2022-12-07T01:04:25;7.80;99.90
46758;DHT22;32509;47.750;-3.396;2022-12-07T01:06:51;7.70;99.90
46758;DHT22;32509;47.750;-3.396;2022-12-07T01:09:17;7.80;99.90
46758;DHT22;32509;47.750;-3.396;2022-12-07T01:11:42;7.80;99.90
46758;DHT22;32509;47.750;-3.396;2022-12-07T01:14:08;7.80;99.90
46758;DHT22;32509;47.750;-3.396;2022-12-07T01:16:34;7.80;99.90
46758;DHT22;32509;47.750;-3.396;2022-12-07T01:19:01;7.80;99.90
46758;DHT22;32509;47.750;-3.396;2022-12-07T01:21:29;7.80;99.90
46758;DHT22;32509;47.750;-3.396;2022-12-07T01:23:57;7.80;99.90
46758;DHT22;32509;47.750;-3.396;2022-12-07T01:26:24;7.80;99.90
46758;DHT22;32509;47.750;-3.396;2022-12-07T01:28:51;7.80;99.90
46758;DHT22;32509;47.750;-3.396;2022-12-07T01:31:24;7.80;99.90
46758;DHT22;32509;47.750;-3.396;2022-12-07T01:33:52;7.80;99.90
46758;DHT22;32509;47.750;-3.396;2022-12-07T01:38:52;7.70;99.90
46758;DHT22;32509;47.750;-3.396;2022-12-07T01:41:20;7.70;99.90
46758;DHT22;32509;47.750;-3.396;2022-12-07T01:44:07;7.70;99.90
46758;DHT22;32509;47.750;-3.396;2022-12-07T01:46:33;7.70;99.90
46758;DHT22;32509;47.750;-3.396;2022-12-07T01:48:59;7.70;99.90
46758;DHT22;32509;47.750;-3.396;2022-12-07T01:51:26;7.70;99.90
46758;DHT22;32509;47.750;-3.396;2022-12-07T01:53:53;7.70;99.90
46758;DHT22;32509;47.750;-3.396;2022-12-07T01:56:22;7.70;99.90
46758;DHT22;32509;47.750;-3.396;2022-12-07T01:58:49;7.70;99.90
46758;DHT22;32509;47.750;-3.396;2022-12-07T02:01:15;7.70;99.90
46758;DHT22;32509;47.750;-3.396;2022-12-07T02:03:42;7.70;99.90
46758;DHT22;32509;47.750;-3.396;2022-12-07T02:06:11;7.70;99.90
46758;DHT22;32509;47.750;-3.396;2022-12-07T02:08:37;7.70;99.90
46758;DHT22;32509;47.750;-3.396;2022-12-07T02:11:04;7.70;99.90
46758;DHT22;32509;47.750;-3.396;2022-12-07T02:13:34;7.70;99.90
46758;DHT22;32509;47.750;-3.396;2022-12-07T02:21:29;7.70;99.90
46758;DHT22;32509;47.750;-3.396;2022-12-07T02:27:17;7.70;99.90
46758;DHT22;32509;47.750;-3.396;2022-12-07T02:30:00;7.70;99.90
46758;DHT22;32509;47.750;-3.396;2022-12-07T02:35:43;7.70;99.90
46758;DHT22;32509;47.750;-3.396;2022-12-07T02:38:25;7.70;99.90
46758;DHT22;32509;47.750;-3.396;2022-12-07T02:41:00;7.70;99.90
46758;DHT22;32509;47.750;-3.396;2022-12-07T02:43:32;7.70;99.90
46758;DHT22;32509;47.750;-3.396;2022-12-07T02:46:13;7.70;99.90
46758;DHT22;32509;47.750;-3.396;2022-12-07T02:48:40;7.70;99.90
46758;DHT22;32509;47.750;-3.396;2022-12-07T02:51:07;7.70;99.90
46758;DHT22;32509;47.750;-3.396;2022-12-07T02:53:41;7.70;99.90
46758;DHT22;32509;47.750;-3.396;2022-12-07T02:56:21;7.70;99.90
46758;DHT22;32509;47.750;-3.396;2022-12-07T03:01:28;7.70;99.90
46758;DHT22;32509;47.750;-3.396;2022-12-07T03:06:46;7.70;99.90
46758;DHT22;32509;47.750;-3.396;2022-12-07T03:09:28;7.70;99.90
46758;DHT22;32509;47.750;-3.396;2022-12-07T03:12:09;7.70;99.90
46758;DHT22;32509;47.750;-3.396;2022-12-07T03:14:48;7.70;99.90
46758;DHT22;32509;47.750;-3.396;2022-12-07T03:17:19;7.70;99.90
46758;DHT22;32509;47.750;-3.396;2022-12-07T03:19:49;7.70;99.90
46758;DHT22;32509;47.750;-3.396;2022-12-07T03:22:17;7.70;99.90
46758;DHT22;32509;47.750;-3.396;2022-12-07T03:24:55;7.70;99.90
46758;DHT22;32509;47.750;-3.396;2022-12-07T03:27:38;7.70;99.90
46758;DHT22;32509;47.750;-3.396;2022-12-07T03:30:16;7.70;99.90
46758;DHT22;32509;47.750;-3.396;2022-12-07T03:32:50;7.70;99.90
46758;DHT22;32509;47.750;-3.396;2022-12-07T03:35:29;7.70;99.90
46758;DHT22;32509;47.750;-3.396;2022-12-07T03:40:34;7.70;99.90
46758;DHT22;32509;47.750;-3.396;2022-12-07T03:43:01;7.70;99.90
46758;DHT22;32509;47.750;-3.396;2022-12-07T03:45:41;7.70;99.90
46758;DHT22;32509;47.750;-3.396;2022-12-07T03:48:35;7.60;99.90
46758;DHT22;32509;47.750;-3.396;2022-12-07T03:51:20;7.70;99.90
46758;DHT22;32509;47.750;-3.396;2022-12-07T03:54:11;7.60;99.90
46758;DHT22;32509;47.750;-3.396;2022-12-07T03:56:40;7.60;99.90
46758;DHT22;32509;47.750;-3.396;2022-12-07T03:59:06;7.60;99.90
46758;DHT22;32509;47.750;-3.396;2022-12-07T04:01:32;7.60;99.90
46758;DHT22;32509;47.750;-3.396;2022-12-07T04:03:58;7.60;99.90
46758;DHT22;32509;47.750;-3.396;2022-12-07T04:06:24;7.60;99.90
46758;DHT22;32509;47.750;-3.396;2022-12-07T04:08:50;7.60;99.90
46758;DHT22;32509;47.750;-3.396;2022-12-07T04:11:16;7.60;99.90
46758;DHT22;32509;47.750;-3.396;2022-12-07T04:13:41;7.60;99.90
46758;DHT22;32509;47.750;-3.396;2022-12-07T04:16:25;7.60;99.90
46758;DHT22;32509;47.750;-3.396;2022-12-07T04:18:51;7.50;99.90
46758;DHT22;32509;47.750;-3.396;2022-12-07T04:21:17;7.60;99.90
46758;DHT22;32509;47.750;-3.396;2022-12-07T04:23:43;7.50;99.90
46758;DHT22;32509;47.750;-3.396;2022-12-07T04:26:08;7.50;99.90
46758;DHT22;32509;47.750;-3.396;2022-12-07T04:28:34;7.50;99.90
46758;DHT22;32509;47.750;-3.396;2022-12-07T04:31:00;7.50;99.90
46758;DHT22;32509;47.750;-3.396;2022-12-07T04:33:26;7.50;99.90
46758;DHT22;32509;47.750;-3.396;2022-12-07T04:35:52;7.40;99.90
46758;DHT22;32509;47.750;-3.396;2022-12-07T04:38:17;7.50;99.90
46758;DHT22;32509;47.750;-3.396;2022-12-07T04:40:43;7.40;99.90
46758;DHT22;32509;47.750;-3.396;2022-12-07T04:43:09;7.40;99.90
46758;DHT22;32509;47.750;-3.396;2022-12-07T04:45:34;7.40;99.90
46758;DHT22;32509;47.750;-3.396;2022-12-07T04:48:00;7.40;99.90
46758;DHT22;32509;47.750;-3.396;2022-12-07T04:50:26;7.40;99.90
46758;DHT22;32509;47.750;-3.396;2022-12-07T04:52:52;7.40;99.90
46758;DHT22;32509;47.750;-3.396;2022-12-07T04:55:17;7.30;99.90
46758;DHT22;32509;47.750;-3.396;2022-12-07T04:57:43;7.30;99.90
46758;DHT22;32509;47.750;-3.396;2022-12-07T05:00:09;7.30;99.90
46758;DHT22;32509;47.750;-3.396;2022-12-07T05:02:35;7.30;99.90
46758;DHT22;32509;47.750;-3.396;2022-12-07T05:05:01;7.20;99.90
46758;DHT22;32509;47.750;-3.396;2022-12-07T05:07:27;7.30;99.90
46758;DHT22;32509;47.750;-3.396;2022-12-07T05:09:52;7.30;99.90
46758;DHT22;32509;47.750;-3.396;2022-12-07T05:12:18;7.30;99.90
46758;DHT22;32509;47.750;-3.396;2022-12-07T05:14:44;7.30;99.90
46758;DHT22;32509;47.750;-3.396;2022-12-07T05:17:10;7.30;99.90
46758;DHT22;32509;47.750;-3.396;2022-12-07T05:19:37;7.30;99.90
46758;DHT22;32509;47.750;-3.396;2022-12-07T05:22:02;7.30;99.90
46758;DHT22;32509;47.750;-3.396;2022-12-07T05:24:28;7.30;99.90
46758;DHT22;32509;47.750;-3.396;2022-12-07T05:26:54;7.30;99.90
46758;DHT22;32509;47.750;-3.396;2022-12-07T05:29:19;7.30;99.90
46758;DHT22;32509;47.750;-3.396;2022-12-07T05:31:45;7.30;99.90
46758;DHT22;32509;47.750;-3.396;2022-12-07T05:34:12;7.30;99.90
46758;DHT22;32509;47.750;-3.396;2022-12-07T05:36:38;7.30;99.90
46758;DHT22;32509;47.750;-3.396;2022-12-07T05:39:03;7.30;99.90
46758;DHT22;32509;47.750;-3.396;2022-12-07T05:41:29;7.30;99.90
46758;DHT22;32509;47.750;-3.396;2022-12-07T05:44:14;7.30;99.90
46758;DHT22;32509;47.750;-3.396;2022-12-07T05:46:39;7.30;99.90
46758;DHT22;32509;47.750;-3.396;2022-12-07T05:49:05;7.40;99.90
46758;DHT22;32509;47.750;-3.396;2022-12-07T05:51:31;7.40;99.90
46758;DHT22;32509;47.750;-3.396;2022-12-07T05:53:57;7.40;99.90
46758;DHT22;32509;47.750;-3.396;2022-12-07T05:56:22;7.40;99.90
46758;DHT22;32509;47.750;-3.396;2022-12-07T05:58:48;7.40;99.90
46758;DHT22;32509;47.750;-3.396;2022-12-07T06:01:32;7.40;99.90
46758;DHT22;32509;47.750;-3.396;2022-12-07T06:03:58;7.40;99.90
46758;DHT22;32509;47.750;-3.396;2022-12-07T06:06:24;7.30;99.90
46758;DHT22;32509;47.750;-3.396;2022-12-07T06:08:50;7.40;99.90
46758;DHT22;32509;47.750;-3.396;2022-12-07T06:11:16;7.40;99.90
46758;DHT22;32509;47.750;-3.396;2022-12-07T06:14:00;7.40;99.90
46758;DHT22;32509;47.750;-3.396;2022-12-07T06:16:26;7.40;99.90
46758;DHT22;32509;47.750;-3.396;2022-12-07T06:18:52;7.30;99.90
46758;DHT22;32509;47.750;-3.396;2022-12-07T06:21:17;7.40;99.90
46758;DHT22;32509;47.750;-3.396;2022-12-07T06:23:43;7.40;99.90
46758;DHT22;32509;47.750;-3.396;2022-12-07T06:26:09;7.30;99.90
46758;DHT22;32509;47.750;-3.396;2022-12-07T06:28:35;7.30;99.90
46758;DHT22;32509;47.750;-3.396;2022-12-07T06:31:01;7.30;99.90
46758;DHT22;32509;47.750;-3.396;2022-12-07T06:33:28;7.30;99.90
46758;DHT22;32509;47.750;-3.396;2022-12-07T06:35:54;7.30;99.90
46758;DHT22;32509;47.750;-3.396;2022-12-07T06:38:20;7.20;99.90
46758;DHT22;32509;47.750;-3.396;2022-12-07T06:40:46;7.20;99.90
46758;DHT22;32509;47.750;-3.396;2022-12-07T06:43:12;7.20;99.90
46758;DHT22;32509;47.750;-3.396;2022-12-07T06:45:38;7.20;99.90
46758;DHT22;32509;47.750;-3.396;2022-12-07T06:48:04;7.20;99.90
46758;DHT22;32509;47.750;-3.396;2022-12-07T06:50:30;7.20;99.90
46758;DHT22;32509;47.750;-3.396;2022-12-07T06:52:56;7.20;99.90
46758;DHT22;32509;47.750;-3.396;2022-12-07T06:55:21;7.10;99.90
46758;DHT22;32509;47.750;-3.396;2022-12-07T06:57:47;7.10;99.90
46758;DHT22;32509;47.750;-3.396;2022-12-07T07:00:14;7.10;99.90
46758;DHT22;32509;47.750;-3.396;2022-12-07T07:02:40;7.10;99.90
46758;DHT22;32509;47.750;-3.396;2022-12-07T07:05:06;7.10;99.90
46758;DHT22;32509;47.750;-3.396;2022-12-07T07:07:31;7.10;99.90
46758;DHT22;32509;47.750;-3.396;2022-12-07T07:09:57;7.10;99.90
46758;DHT22;32509;47.750;-3.396;2022-12-07T07:12:23;7.00;99.90
46758;DHT22;32509;47.750;-3.396;2022-12-07T07:14:49;7.00;99.90
46758;DHT22;32509;47.750;-3.396;2022-12-07T07:17:14;7.00;99.90
46758;DHT22;32509;47.750;-3.396;2022-12-07T07:19:40;7.00;99.90
46758;DHT22;32509;47.750;-3.396;2022-12-07T07:22:06;7.00;99.90
46758;DHT22;32509;47.750;-3.396;2022-12-07T07:24:32;7.00;99.90
46758;DHT22;32509;47.750;-3.396;2022-12-07T07:26:58;7.00;99.90
46758;DHT22;32509;47.750;-3.396;2022-12-07T07:29:24;7.00;99.90
46758;DHT22;32509;47.750;-3.396;2022-12-07T07:31:49;7.00;99.90
46758;DHT22;32509;47.750;-3.396;2022-12-07T07:34:15;6.90;99.90
46758;DHT22;32509;47.750;-3.396;2022-12-07T07:36:41;7.00;99.90
46758;DHT22;32509;47.750;-3.396;2022-12-07T07:39:06;7.00;99.90
46758;DHT22;32509;47.750;-3.396;2022-12-07T07:41:32;7.00;99.90
46758;DHT22;32509;47.750;-3.396;2022-12-07T07:43:58;7.00;99.90
46758;DHT22;32509;47.750;-3.396;2022-12-07T07:46:24;7.00;99.90
46758;DHT22;32509;47.750;-3.396;2022-12-07T07:48:49;7.00;99.90
46758;DHT22;32509;47.750;-3.396;2022-12-07T07:51:15;7.10;99.90
46758;DHT22;32509;47.750;-3.396;2022-12-07T07:53:41;7.00;99.90
46758;DHT22;32509;47.750;-3.396;2022-12-07T07:56:07;7.00;99.90
46758;DHT22;32509;47.750;-3.396;2022-12-07T07:58:33;7.00;99.90
46758;DHT22;32509;47.750;-3.396;2022-12-07T08:01:04;7.00;99.90
46758;DHT22;32509;47.750;-3.396;2022-12-07T08:03:30;7.00;99.90
46758;DHT22;32509;47.750;-3.396;2022-12-07T08:05:55;7.00;99.90
46758;DHT22;32509;47.750;-3.396;2022-12-07T08:08:21;7.00;99.90
46758;DHT22;32509;47.750;-3.396;2022-12-07T08:10:47;7.00;99.90
46758;DHT22;32509;47.750;-3.396;2022-12-07T08:13:15;7.00;99.90
46758;DHT22;32509;47.750;-3.396;2022-12-07T08:15:44;7.00;99.90
46758;DHT22;32509;47.750;-3.396;2022-12-07T08:18:11;7.00;99.90
46758;DHT22;32509;47.750;-3.396;2022-12-07T08:20:38;7.00;99.90
46758;DHT22;32509;47.750;-3.396;2022-12-07T08:23:05;7.00;99.90
46758;DHT22;32509;47.750;-3.396;2022-12-07T08:25:31;7.00;99.90
46758;DHT22;32509;47.750;-3.396;2022-12-07T08:27:57;7.00;99.90
46758;DHT22;32509;47.750;-3.396;2022-12-07T08:30:23;7.00;99.90
46758;DHT22;32509;47.750;-3.396;2022-12-07T08:32:49;7.10;99.90
46758;DHT22;32509;47.750;-3.396;2022-12-07T08:35:16;7.10;99.90
46758;DHT22;32509;47.750;-3.396;2022-12-07T08:37:42;7.10;99.90
46758;DHT22;32509;47.750;-3.396;2022-12-07T08:40:09;7.10;99.90
46758;DHT22;32509;47.750;-3.396;2022-12-07T08:42:35;7.20;99.90
46758;DHT22;32509;47.750;-3.396;2022-12-07T08:45:14;7.10;99.90
46758;DHT22;32509;47.750;-3.396;2022-12-07T08:48:10;7.10;99.90
46758;DHT22;32509;47.750;-3.396;2022-12-07T08:50:37;7.20;99.90
46758;DHT22;32509;47.750;-3.396;2022-12-07T08:53:04;7.20;99.90
46758;DHT22;32509;47.750;-3.396;2022-12-07T08:55:30;7.20;99.90
46758;DHT22;32509;47.750;-3.396;2022-12-07T08:58:02;7.20;99.90
46758;DHT22;32509;47.750;-3.396;2022-12-07T09:00:28;7.20;99.90
46758;DHT22;32509;47.750;-3.396;2022-12-07T09:02:54;7.30;99.90
46758;DHT22;32509;47.750;-3.396;2022-12-07T09:05:20;7.30;99.90
46758;DHT22;32509;47.750;-3.396;2022-12-07T09:07:51;7.30;99.90
46758;DHT22;32509;47.750;-3.396;2022-12-07T09:10:17;7.30;99.90
46758;DHT22;32509;47.750;-3.396;2022-12-07T09:12:43;7.30;99.90
46758;DHT22;32509;47.750;-3.396;2022-12-07T09:15:09;7.30;99.90
46758;DHT22;32509;47.750;-3.396;2022-12-07T09:17:35;7.30;99.90
46758;DHT22;32509;47.750;-3.396;2022-12-07T09:20:02;7.40;99.90
46758;DHT22;32509;47.750;-3.396;2022-12-07T09:22:31;7.30;99.90
46758;DHT22;32509;47.750;-3.396;2022-12-07T09:25:01;7.40;99.90
46758;DHT22;32509;47.750;-3.396;2022-12-07T09:27:27;7.40;99.90
46758;DHT22;32509;47.750;-3.396;2022-12-07T09:29:53;7.40;99.90
46758;DHT22;32509;47.750;-3.396;2022-12-07T09:32:19;7.40;99.90
46758;DHT22;32509;47.750;-3.396;2022-12-07T09:34:45;7.40;99.90
46758;DHT22;32509;47.750;-3.396;2022-12-07T09:37:10;7.40;99.90
46758;DHT22;32509;47.750;-3.396;2022-12-07T09:39:40;7.40;99.90
46758;DHT22;32509;47.750;-3.396;2022-12-07T09:42:07;7.40;99.90
46758;DHT22;32509;47.750;-3.396;2022-12-07T09:44:34;7.40;99.90
46758;DHT22;32509;47.750;-3.396;2022-12-07T09:47:00;7.40;99.90
46758;DHT22;32509;47.750;-3.396;2022-12-07T09:49:29;7.40;99.90
46758;DHT22;32509;47.750;-3.396;2022-12-07T09:54:36;7.50;99.90
46758;DHT22;32509;47.750;-3.396;2022-12-07T09:57:04;7.50;99.90
46758;DHT22;32509;47.750;-3.396;2022-12-07T09:59:30;7.50;99.90
46758;DHT22;32509;47.750;-3.396;2022-12-07T10:02:23;7.50;99.90
46758;DHT22;32509;47.750;-3.396;2022-12-07T10:04:50;7.50;99.90
46758;DHT22;32509;47.750;-3.396;2022-12-07T10:07:16;7.50;99.90
46758;DHT22;32509;47.750;-3.396;2022-12-07T10:09:42;7.60;99.90
46758;DHT22;32509;47.750;-3.396;2022-12-07T10:12:12;7.60;99.90
46758;DHT22;32509;47.750;-3.396;2022-12-07T10:14:53;7.60;99.90
46758;DHT22;32509;47.750;-3.396;2022-12-07T10:17:48;7.60;99.90
46758;DHT22;32509;47.750;-3.396;2022-12-07T10:20:26;7.60;99.90
46758;DHT22;32509;47.750;-3.396;2022-12-07T10:23:05;7.60;99.90
46758;DHT22;32509;47.750;-3.396;2022-12-07T10:25:39;7.60;99.90
46758;DHT22;32509;47.750;-3.396;2022-12-07T10:28:13;7.70;99.90
46758;DHT22;32509;47.750;-3.396;2022-12-07T10:31:00;7.70;99.90
46758;DHT22;32509;47.750;-3.396;2022-12-07T10:33:38;7.60;99.90
46758;DHT22;32509;47.750;-3.396;2022-12-07T10:36:24;7.70;99.90
46758;DHT22;32509;47.750;-3.396;2022-12-07T10:41:18;7.70;99.90
46758;DHT22;32509;47.750;-3.396;2022-12-07T10:43:52;7.70;99.90
46758;DHT22;32509;47.750;-3.396;2022-12-07T10:49:22;7.80;99.90
46758;DHT22;32509;47.750;-3.396;2022-12-07T10:52:11;7.80;99.90
46758;DHT22;32509;47.750;-3.396;2022-12-07T11:05:41;7.90;99.90
46758;DHT22;32509;47.750;-3.396;2022-12-07T11:14:03;7.90;99.90
46758;DHT22;32509;47.750;-3.396;2022-12-07T11:22:17;8.00;99.90
46758;DHT22;32509;47.750;-3.396;2022-12-07T11:33:45;8.10;99.90
46758;DHT22;32509;47.750;-3.396;2022-12-07T11:39:30;8.10;99.90
46758;DHT22;32509;47.750;-3.396;2022-12-07T11:42:23;8.10;99.90
46758;DHT22;32509;47.750;-3.396;2022-12-07T11:45:22;8.20;99.90
46758;DHT22;32509;47.750;-3.396;2022-12-07T11:47:56;8.20;99.90
46758;DHT22;32509;47.750;-3.396;2022-12-07T11:50:44;8.20;99.90
46758;DHT22;32509;47.750;-3.396;2022-12-07T11:53:18;8.20;99.90
46758;DHT22;32509;47.750;-3.396;2022-12-07T11:55:57;8.20;99.90
46758;DHT22;32509;47.750;-3.396;2022-12-07T12:06:44;8.20;99.90
46758;DHT22;32509;47.750;-3.396;2022-12-07T12:09:33;8.30;99.90
46758;DHT22;32509;47.750;-3.396;2022-12-07T12:20:30;8.30;99.90
46758;DHT22;32509;47.750;-3.396;2022-12-07T12:23:20;8.30;99.90
46758;DHT22;32509;47.750;-3.396;2022-12-07T12:25:53;8.30;99.90
46758;DHT22;32509;47.750;-3.396;2022-12-07T12:33:45;8.30;99.90
46758;DHT22;32509;47.750;-3.396;2022-12-07T12:51:49;8.30;99.90
46758;DHT22;32509;47.750;-3.396;2022-12-07T12:59:32;8.30;99.90
46758;DHT22;32509;47.750;-3.396;2022-12-07T13:02:21;8.30;99.90
46758;DHT22;32509;47.750;-3.396;2022-12-07T13:15:46;8.30;99.90
46758;DHT22;32509;47.750;-3.396;2022-12-07T13:18:25;8.30;99.90
46758;DHT22;32509;47.750;-3.396;2022-12-07T13:26:17;8.40;99.90
46758;DHT22;32509;47.750;-3.396;2022-12-07T13:34:27;8.30;99.90
46758;DHT22;32509;47.750;-3.396;2022-12-07T13:36:51;8.30;99.90
46758;DHT22;32509;47.750;-3.396;2022-12-07T13:39:18;8.40;99.90
46758;DHT22;32509;47.750;-3.396;2022-12-07T13:41:46;8.40;99.90
46758;DHT22;32509;47.750;-3.396;2022-12-07T13:44:15;8.40;99.90
46758;DHT22;32509;47.750;-3.396;2022-12-07T13:49:44;8.40;99.90
46758;DHT22;32509;47.750;-3.396;2022-12-07T13:55:08;8.40;99.90
46758;DHT22;32509;47.750;-3.396;2022-12-07T13:57:39;8.40;99.90
46758;DHT22;32509;47.750;-3.396;2022-12-07T14:00:13;8.40;99.90
46758;DHT22;32509;47.750;-3.396;2022-12-07T14:02:58;8.40;99.90
46758;DHT22;32509;47.750;-3.396;2022-12-07T14:05:30;8.40;99.90
46758;DHT22;32509;47.750;-3.396;2022-12-07T14:08:05;8.40;99.90
46758;DHT22;32509;47.750;-3.396;2022-12-07T14:10:33;8.40;99.90
46758;DHT22;32509;47.750;-3.396;2022-12-07T14:13:01;8.40;99.90
46758;DHT22;32509;47.750;-3.396;2022-12-07T14:15:33;8.40;99.90
46758;DHT22;32509;47.750;-3.396;2022-12-07T14:18:00;8.40;99.90
46758;DHT22;32509;47.750;-3.396;2022-12-07T14:20:39;8.40;99.90
46758;DHT22;32509;47.750;-3.396;2022-12-07T14:23:22;8.40;99.90
46758;DHT22;32509;47.750;-3.396;2022-12-07T14:25:51;8.50;99.90
46758;DHT22;32509;47.750;-3.396;2022-12-07T14:28:32;8.40;99.90
46758;DHT22;32509;47.750;-3.396;2022-12-07T14:30:59;8.40;99.90
46758;DHT22;32509;47.750;-3.396;2022-12-07T14:33:26;8.40;99.90
46758;DHT22;32509;47.750;-3.396;2022-12-07T14:35:51;8.50;99.90
46758;DHT22;32509;47.750;-3.396;2022-12-07T14:38:24;8.50;99.90
46758;DHT22;32509;47.750;-3.396;2022-12-07T14:40:53;8.50;99.90
46758;DHT22;32509;47.750;-3.396;2022-12-07T14:43:20;8.50;99.90
46758;DHT22;32509;47.750;-3.396;2022-12-07T14:45:46;8.50;99.90
46758;DHT22;32509;47.750;-3.396;2022-12-07T14:48:14;8.50;99.90
46758;DHT22;32509;47.750;-3.396;2022-12-07T14:50:49;8.50;99.90
46758;DHT22;32509;47.750;-3.396;2022-12-07T14:53:18;8.50;99.90
46758;DHT22;32509;47.750;-3.396;2022-12-07T14:55:47;8.50;99.90
46758;DHT22;32509;47.750;-3.396;2022-12-07T14:58:14;8.50;99.90
46758;DHT22;32509;47.750;-3.396;2022-12-07T15:00:40;8.50;99.90
46758;DHT22;32509;47.750;-3.396;2022-12-07T15:03:06;8.50;99.90
46758;DHT22;32509;47.750;-3.396;2022-12-07T15:05:33;8.50;99.90
46758;DHT22;32509;47.750;-3.396;2022-12-07T15:07:59;8.50;99.90
46758;DHT22;32509;47.750;-3.396;2022-12-07T15:10:27;8.60;99.90
46758;DHT22;32509;47.750;-3.396;2022-12-07T15:13:02;8.60;99.90
46758;DHT22;32509;47.750;-3.396;2022-12-07T15:15:48;8.60;99.90
46758;DHT22;32509;47.750;-3.396;2022-12-07T15:18:14;8.60;99.90
46758;DHT22;32509;47.750;-3.396;2022-12-07T15:20:40;8.50;99.90
46758;DHT22;32509;47.750;-3.396;2022-12-07T15:23:06;8.50;99.90
46758;DHT22;32509;47.750;-3.396;2022-12-07T15:25:32;8.60;99.90
46758;DHT22;32509;47.750;-3.396;2022-12-07T15:27:58;8.50;99.90
46758;DHT22;32509;47.750;-3.396;2022-12-07T15:30:23;8.60;99.90
46758;DHT22;32509;47.750;-3.396;2022-12-07T15:32:53;8.60;99.90
46758;DHT22;32509;47.750;-3.396;2022-12-07T15:35:19;8.50;99.90
46758;DHT22;32509;47.750;-3.396;2022-12-07T15:37:45;8.60;99.90
46758;DHT22;32509;47.750;-3.396;2022-12-07T15:40:12;8.60;99.90
46758;DHT22;32509;47.750;-3.396;2022-12-07T15:42:38;8.60;99.90
46758;DHT22;32509;47.750;-3.396;2022-12-07T15:45:06;8.60;99.90
46758;DHT22;32509;47.750;-3.396;2022-12-07T15:47:37;8.60;99.90
46758;DHT22;32509;47.750;-3.396;2022-12-07T15:50:05;8.60;99.90
46758;DHT22;32509;47.750;-3.396;2022-12-07T15:52:32;8.60;99.90
46758;DHT22;32509;47.750;-3.396;2022-12-07T15:54:58;8.60;99.90
46758;DHT22;32509;47.750;-3.396;2022-12-07T15:57:29;8.60;99.90
46758;DHT22;32509;47.750;-3.396;2022-12-07T15:59:55;8.60;99.90
46758;DHT22;32509;47.750;-3.396;2022-12-07T16:02:21;8.60;99.90
46758;DHT22;32509;47.750;-3.396;2022-12-07T16:04:48;8.60;99.90
46758;DHT22;32509;47.750;-3.396;2022-12-07T16:07:13;8.60;99.90
46758;DHT22;32509;47.750;-3.396;2022-12-07T16:09:42;8.70;99.90
46758;DHT22;32509;47.750;-3.396;2022-12-07T16:12:08;8.70;99.90
46758;DHT22;32509;47.750;-3.396;2022-12-07T16:14:34;8.70;99.90
46758;DHT22;32509;47.750;-3.396;2022-12-07T16:17:00;8.70;99.90
46758;DHT22;32509;47.750;-3.396;2022-12-07T16:19:26;8.70;99.90
46758;DHT22;32509;47.750;-3.396;2022-12-07T16:21:52;8.70;99.90
46758;DHT22;32509;47.750;-3.396;2022-12-07T16:24:18;8.70;99.90
46758;DHT22;32509;47.750;-3.396;2022-12-07T16:26:44;8.70;99.90
46758;DHT22;32509;47.750;-3.396;2022-12-07T16:29:13;8.60;99.90
46758;DHT22;32509;47.750;-3.396;2022-12-07T16:31:39;8.70;99.90
46758;DHT22;32509;47.750;-3.396;2022-12-07T16:34:06;8.60;99.90
46758;DHT22;32509;47.750;-3.396;2022-12-07T16:36:32;8.60;99.90
46758;DHT22;32509;47.750;-3.396;2022-12-07T16:39:02;8.60;99.90
46758;DHT22;32509;47.750;-3.396;2022-12-07T16:41:28;8.60;99.90
46758;DHT22;32509;47.750;-3.396;2022-12-07T16:43:54;8.60;99.90
46758;DHT22;32509;47.750;-3.396;2022-12-07T16:46:19;8.60;99.90
46758;DHT22;32509;47.750;-3.396;2022-12-07T16:48:45;8.50;99.90
46758;DHT22;32509;47.750;-3.396;2022-12-07T16:51:13;8.50;99.90
46758;DHT22;32509;47.750;-3.396;2022-12-07T16:53:41;8.60;99.90
46758;DHT22;32509;47.750;-3.396;2022-12-07T16:56:15;8.60;99.90
46758;DHT22;32509;47.750;-3.396;2022-12-07T16:58:42;8.50;99.90
46758;DHT22;32509;47.750;-3.396;2022-12-07T17:01:13;8.60;99.90
46758;DHT22;32509;47.750;-3.396;2022-12-07T17:03:39;8.60;99.90
46758;DHT22;32509;47.750;-3.396;2022-12-07T17:06:21;8.60;99.90
46758;DHT22;32509;47.750;-3.396;2022-12-07T17:08:49;8.60;99.90
46758;DHT22;32509;47.750;-3.396;2022-12-07T17:13:43;8.60;99.90
46758;DHT22;32509;47.750;-3.396;2022-12-07T17:16:27;8.60;99.90
46758;DHT22;32509;47.750;-3.396;2022-12-07T17:18:54;8.60;99.90
46758;DHT22;32509;47.750;-3.396;2022-12-07T17:21:20;8.60;99.90
46758;DHT22;32509;47.750;-3.396;2022-12-07T17:23:46;8.60;99.90
46758;DHT22;32509;47.750;-3.396;2022-12-07T17:26:18;8.50;99.90
46758;DHT22;32509;47.750;-3.396;2022-12-07T17:28:44;8.60;99.90
46758;DHT22;32509;47.750;-3.396;2022-12-07T17:31:19;8.60;99.90
46758;DHT22;32509;47.750;-3.396;2022-12-07T17:33:45;8.50;99.90
46758;DHT22;32509;47.750;-3.396;2022-12-07T17:36:17;8.50;99.90
46758;DHT22;32509;47.750;-3.396;2022-12-07T17:38:43;8.50;99.90
46758;DHT22;32509;47.750;-3.396;2022-12-07T17:44:00;8.50;99.90
46758;DHT22;32509;47.750;-3.396;2022-12-07T17:46:27;8.50;99.90
46758;DHT22;32509;47.750;-3.396;2022-12-07T17:48:56;8.50;99.90
46758;DHT22;32509;47.750;-3.396;2022-12-07T17:51:22;8.50;99.90
46758;DHT22;32509;47.750;-3.396;2022-12-07T17:54:06;8.50;99.90
46758;DHT22;32509;47.750;-3.396;2022-12-07T17:56:32;8.50;99.90
46758;DHT22;32509;47.750;-3.396;2022-12-07T17:58:58;8.50;99.90
46758;DHT22;32509;47.750;-3.396;2022-12-07T18:01:25;8.50;99.90
46758;DHT22;32509;47.750;-3.396;2022-12-07T18:03:51;8.50;99.90